sensor_id;sensor_type;location;lat;lon;timestamp;temperature;humidity
33837;DHT22;20140;49.356;8.812;2022-08-20T00:00:17;17.10;99.90
33837;DHT22;20140;49.356;8.812;2022-08-20T00:02:50;17.10;99.90
33837;DHT22;20140;49.356;8.812;2022-08-20T00:05:22;17.10;99.90
33837;DHT22;20140;49.356;8.812;2022-08-20T00:07:48;17.10;99.90
33837;DHT22;20140;49.356;8.812;2022-08-20T00:10:14;17.10;99.90
33837;DHT22;20140;49.356;8.812;2022-08-20T00:12:47;16.90;99.90
33837;DHT22;20140;49.356;8.812;2022-08-20T00:15:15;16.90;99.90
33837;DHT22;20140;49.356;8.812;2022-08-20T00:17:47;16.90;99.90
33837;DHT22;20140;49.356;8.812;2022-08-20T00:20:15;16.80;99.90
33837;DHT22;20140;49.356;8.812;2022-08-20T00:22:42;16.70;99.90
33837;DHT22;20140;49.356;8.812;2022-08-20T00:25:08;16.70;99.90
33837;DHT22;20140;49.356;8.812;2022-08-20T00:27:34;16.60;99.90
33837;DHT22;20140;49.356;8.812;2022-08-20T00:30:00;16.70;99.90
33837;DHT22;20140;49.356;8.812;2022-08-20T00:32:26;16.60;99.90
33837;DHT22;20140;49.356;8.812;2022-08-20T00:34:52;16.60;99.90
33837;DHT22;20140;49.356;8.812;2022-08-20T00:37:17;16.60;99.90
33837;DHT22;20140;49.356;8.812;2022-08-20T00:39:43;16.40;99.90
33837;DHT22;20140;49.356;8.812;2022-08-20T00:42:09;16.40;99.90
33837;DHT22;20140;49.356;8.812;2022-08-20T00:44:35;16.40;99.90
33837;DHT22;20140;49.356;8.812;2022-08-20T00:47:01;16.40;99.90
33837;DHT22;20140;49.356;8.812;2022-08-20T00:49:29;16.50;99.90
33837;DHT22;20140;49.356;8.812;2022-08-20T00:51:58;16.60;99.90
33837;DHT22;20140;49.356;8.812;2022-08-20T00:54:36;16.60;99.90
33837;DHT22;20140;49.356;8.812;2022-08-20T00:59:43;16.60;99.90
33837;DHT22;20140;49.356;8.812;2022-08-20T01:02:14;16.60;99.90
33837;DHT22;20140;49.356;8.812;2022-08-20T01:04:40;16.60;99.90
33837;DHT22;20140;49.356;8.812;2022-08-20T01:07:09;16.60;99.90
33837;DHT22;20140;49.356;8.812;2022-08-20T01:09:36;16.60;99.90
33837;DHT22;20140;49.356;8.812;2022-08-20T01:12:02;16.60;99.90
33837;DHT22;20140;49.356;8.812;2022-08-20T01:14:28;16.50;99.90
33837;DHT22;20140;49.356;8.812;2022-08-20T01:17:07;16.50;99.90
33837;DHT22;20140;49.356;8.812;2022-08-20T01:19:38;16.50;99.90
33837;DHT22;20140;49.356;8.812;2022-08-20T01:22:06;16.40;99.90
33837;DHT22;20140;49.356;8.812;2022-08-20T01:24:56;16.50;99.90
33837;DHT22;20140;49.356;8.812;2022-08-20T01:27:25;16.40;99.90
33837;DHT22;20140;49.356;8.812;2022-08-20T01:29:51;16.30;99.90
33837;DHT22;20140;49.356;8.812;2022-08-20T01:32:17;16.30;99.90
33837;DHT22;20140;49.356;8.812;2022-08-20T01:34:42;16.20;99.90
33837;DHT22;20140;49.356;8.812;2022-08-20T01:37:08;16.10;99.90
33837;DHT22;20140;49.356;8.812;2022-08-20T01:39:35;16.10;99.90
33837;DHT22;20140;49.356;8.812;2022-08-20T01:47:54;16.20;99.90
33837;DHT22;20140;49.356;8.812;2022-08-20T01:50:23;16.30;99.90
33837;DHT22;20140;49.356;8.812;2022-08-20T01:53:18;16.40;99.90
33837;DHT22;20140;49.356;8.812;2022-08-20T01:55:46;16.30;99.90
33837;DHT22;20140;49.356;8.812;2022-08-20T01:58:11;16.40;99.90
33837;DHT22;20140;49.356;8.812;2022-08-20T02:00:37;16.30;99.90
33837;DHT22;20140;49.356;8.812;2022-08-20T02:03:03;16.40;99.90
33837;DHT22;20140;49.356;8.812;2022-08-20T02:05:30;16.40;99.90
33837;DHT22;20140;49.356;8.812;2022-08-20T02:07:57;16.50;99.90
33837;DHT22;20140;49.356;8.812;2022-08-20T02:10:22;16.40;99.90
33837;DHT22;20140;49.356;8.812;2022-08-20T02:12:48;16.40;99.90
33837;DHT22;20140;49.356;8.812;2022-08-20T02:15:14;16.40;99.90
33837;DHT22;20140;49.356;8.812;2022-08-20T02:17:40;16.40;99.90
33837;DHT22;20140;49.356;8.812;2022-08-20T02:25:06;16.20;99.90
33837;DHT22;20140;49.356;8.812;2022-08-20T02:27:33;16.20;99.90
33837;DHT22;20140;49.356;8.812;2022-08-20T02:29:58;16.20;99.90
33837;DHT22;20140;49.356;8.812;2022-08-20T02:32:24;16.30;99.90
33837;DHT22;20140;49.356;8.812;2022-08-20T02:34:50;16.30;99.90
33837;DHT22;20140;49.356;8.812;2022-08-20T02:37:15;16.30;99.90
33837;DHT22;20140;49.356;8.812;2022-08-20T02:39:43;16.30;99.90
33837;DHT22;20140;49.356;8.812;2022-08-20T02:42:08;16.30;99.90
33837;DHT22;20140;49.356;8.812;2022-08-20T02:44:36;16.30;99.90
33837;DHT22;20140;49.356;8.812;2022-08-20T02:47:03;16.40;99.90
33837;DHT22;20140;49.356;8.812;2022-08-20T02:49:28;16.30;99.90
33837;DHT22;20140;49.356;8.812;2022-08-20T02:51:54;16.30;99.90
33837;DHT22;20140;49.356;8.812;2022-08-20T02:54:20;16.40;99.90
33837;DHT22;20140;49.356;8.812;2022-08-20T02:56:45;16.40;99.90
33837;DHT22;20140;49.356;8.812;2022-08-20T02:59:11;16.40;99.90
33837;DHT22;20140;49.356;8.812;2022-08-20T03:01:37;16.50;99.90
33837;DHT22;20140;49.356;8.812;2022-08-20T03:04:03;16.50;99.90
33837;DHT22;20140;49.356;8.812;2022-08-20T03:06:29;16.50;99.90
33837;DHT22;20140;49.356;8.812;2022-08-20T03:08:55;16.50;99.90
33837;DHT22;20140;49.356;8.812;2022-08-20T03:11:20;16.60;99.90
33837;DHT22;20140;49.356;8.812;2022-08-20T03:13:46;16.60;99.90
33837;DHT22;20140;49.356;8.812;2022-08-20T03:16:12;16.60;99.90
33837;DHT22;20140;49.356;8.812;2022-08-20T03:22:00;16.60;99.90
33837;DHT22;20140;49.356;8.812;2022-08-20T03:24:26;16.70;99.90
33837;DHT22;20140;49.356;8.812;2022-08-20T03:26:52;16.70;99.90
33837;DHT22;20140;49.356;8.812;2022-08-20T03:29:17;16.70;99.90
33837;DHT22;20140;49.356;8.812;2022-08-20T03:31:43;16.70;99.90
33837;DHT22;20140;49.356;8.812;2022-08-20T03:34:08;16.70;99.90
33837;DHT22;20140;49.356;8.812;2022-08-20T03:36:34;16.70;99.90
33837;DHT22;20140;49.356;8.812;2022-08-20T03:39:03;16.70;99.90
33837;DHT22;20140;49.356;8.812;2022-08-20T03:41:28;16.70;99.90
33837;DHT22;20140;49.356;8.812;2022-08-20T03:43:56;16.80;99.90
33837;DHT22;20140;49.356;8.812;2022-08-20T03:46:22;16.90;99.90
33837;DHT22;20140;49.356;8.812;2022-08-20T03:48:48;16.90;99.90
33837;DHT22;20140;49.356;8.812;2022-08-20T03:51:13;16.80;99.90
33837;DHT22;20140;49.356;8.812;2022-08-20T03:53:39;16.90;99.90
33837;DHT22;20140;49.356;8.812;2022-08-20T03:56:05;16.90;99.90
33837;DHT22;20140;49.356;8.812;2022-08-20T03:58:33;17.00;99.90
33837;DHT22;20140;49.356;8.812;2022-08-20T04:00:59;16.90;99.90
33837;DHT22;20140;49.356;8.812;2022-08-20T04:03:25;16.90;99.90
33837;DHT22;20140;49.356;8.812;2022-08-20T04:05:51;16.90;99.90
33837;DHT22;20140;49.356;8.812;2022-08-20T04:08:27;16.90;99.90
33837;DHT22;20140;49.356;8.812;2022-08-20T04:10:55;16.90;99.90
33837;DHT22;20140;49.356;8.812;2022-08-20T04:13:22;16.90;99.90
33837;DHT22;20140;49.356;8.812;2022-08-20T04:15:49;17.00;99.90
33837;DHT22;20140;49.356;8.812;2022-08-20T04:18:15;17.00;99.90
33837;DHT22;20140;49.356;8.812;2022-08-20T04:20:46;17.00;99.90
33837;DHT22;20140;49.356;8.812;2022-08-20T04:23:12;17.10;99.90
33837;DHT22;20140;49.356;8.812;2022-08-20T04:25:39;17.20;99.90
33837;DHT22;20140;49.356;8.812;2022-08-20T04:31:27;17.20;99.90
33837;DHT22;20140;49.356;8.812;2022-08-20T04:33:59;17.10;99.90
33837;DHT22;20140;49.356;8.812;2022-08-20T04:36:24;17.10;99.90
33837;DHT22;20140;49.356;8.812;2022-08-20T04:38:50;17.10;99.90
33837;DHT22;20140;49.356;8.812;2022-08-20T04:41:15;17.10;99.90
33837;DHT22;20140;49.356;8.812;2022-08-20T04:43:41;17.10;99.90
33837;DHT22;20140;49.356;8.812;2022-08-20T04:46:08;17.10;99.90
33837;DHT22;20140;49.356;8.812;2022-08-20T04:48:35;17.10;99.90
33837;DHT22;20140;49.356;8.812;2022-08-20T04:51:05;17.10;99.90
33837;DHT22;20140;49.356;8.812;2022-08-20T04:53:30;17.10;99.90
33837;DHT22;20140;49.356;8.812;2022-08-20T04:55:58;17.10;99.90
33837;DHT22;20140;49.356;8.812;2022-08-20T04:58:33;17.10;99.90
33837;DHT22;20140;49.356;8.812;2022-08-20T05:01:01;17.00;99.90
33837;DHT22;20140;49.356;8.812;2022-08-20T05:03:40;17.00;99.90
33837;DHT22;20140;49.356;8.812;2022-08-20T05:16:25;17.70;99.90
33837;DHT22;20140;49.356;8.812;2022-08-20T05:18:51;17.60;99.90
33837;DHT22;20140;49.356;8.812;2022-08-20T05:21:17;17.80;99.90
33837;DHT22;20140;49.356;8.812;2022-08-20T05:23:43;17.90;99.90
33837;DHT22;20140;49.356;8.812;2022-08-20T05:26:10;18.00;99.90
33837;DHT22;20140;49.356;8.812;2022-08-20T05:28:37;18.10;99.90
33837;DHT22;20140;49.356;8.812;2022-08-20T05:31:03;18.00;99.90
33837;DHT22;20140;49.356;8.812;2022-08-20T05:33:31;18.00;99.90
33837;DHT22;20140;49.356;8.812;2022-08-20T05:35:57;18.10;99.90
33837;DHT22;20140;49.356;8.812;2022-08-20T05:38:25;18.10;99.90
33837;DHT22;20140;49.356;8.812;2022-08-20T05:40:51;18.00;99.90
33837;DHT22;20140;49.356;8.812;2022-08-20T05:43:17;18.00;99.90
33837;DHT22;20140;49.356;8.812;2022-08-20T05:45:44;18.00;99.90
33837;DHT22;20140;49.356;8.812;2022-08-20T05:48:17;18.00;99.90
33837;DHT22;20140;49.356;8.812;2022-08-20T05:50:44;18.10;99.90
33837;DHT22;20140;49.356;8.812;2022-08-20T05:53:12;18.10;99.90
33837;DHT22;20140;49.356;8.812;2022-08-20T06:05:34;18.40;99.90
33837;DHT22;20140;49.356;8.812;2022-08-20T06:08:00;18.60;99.90
33837;DHT22;20140;49.356;8.812;2022-08-20T06:10:38;18.80;99.90
33837;DHT22;20140;49.356;8.812;2022-08-20T06:13:04;19.10;99.90
33837;DHT22;20140;49.356;8.812;2022-08-20T06:18:51;19.80;99.90
33837;DHT22;20140;49.356;8.812;2022-08-20T06:21:17;19.90;99.90
33837;DHT22;20140;49.356;8.812;2022-08-20T06:23:42;20.00;99.90
33837;DHT22;20140;49.356;8.812;2022-08-20T06:26:33;20.30;99.90
33837;DHT22;20140;49.356;8.812;2022-08-20T06:32:46;20.50;99.90
33837;DHT22;20140;49.356;8.812;2022-08-20T06:35:12;20.50;99.90
33837;DHT22;20140;49.356;8.812;2022-08-20T06:37:39;20.50;99.90
33837;DHT22;20140;49.356;8.812;2022-08-20T06:40:15;20.70;99.90
33837;DHT22;20140;49.356;8.812;2022-08-20T06:42:41;20.70;99.90
33837;DHT22;20140;49.356;8.812;2022-08-20T06:45:14;20.90;99.90
33837;DHT22;20140;49.356;8.812;2022-08-20T06:47:42;20.90;99.90
33837;DHT22;20140;49.356;8.812;2022-08-20T06:50:10;20.90;99.90
33837;DHT22;20140;49.356;8.812;2022-08-20T06:52:41;21.00;99.90
33837;DHT22;20140;49.356;8.812;2022-08-20T06:55:08;21.10;99.90
33837;DHT22;20140;49.356;8.812;2022-08-20T06:57:35;21.10;99.90
33837;DHT22;20140;49.356;8.812;2022-08-20T07:00:03;21.00;99.90
33837;DHT22;20140;49.356;8.812;2022-08-20T07:02:29;21.10;99.90
33837;DHT22;20140;49.356;8.812;2022-08-20T07:04:54;21.40;99.90
33837;DHT22;20140;49.356;8.812;2022-08-20T07:07:20;21.40;99.90
33837;DHT22;20140;49.356;8.812;2022-08-20T07:09:46;21.40;99.90
33837;DHT22;20140;49.356;8.812;2022-08-20T07:12:12;21.60;99.90
33837;DHT22;20140;49.356;8.812;2022-08-20T07:14:38;21.70;99.90
33837;DHT22;20140;49.356;8.812;2022-08-20T07:17:04;21.90;99.90
33837;DHT22;20140;49.356;8.812;2022-08-20T07:19:31;21.90;99.90
33837;DHT22;20140;49.356;8.812;2022-08-20T07:21:57;21.90;99.90
33837;DHT22;20140;49.356;8.812;2022-08-20T07:24:23;21.80;99.90
33837;DHT22;20140;49.356;8.812;2022-08-20T07:26:48;21.80;99.90
33837;DHT22;20140;49.356;8.812;2022-08-20T07:29:16;21.90;99.90
33837;DHT22;20140;49.356;8.812;2022-08-20T07:31:42;22.10;99.90
33837;DHT22;20140;49.356;8.812;2022-08-20T07:34:26;22.10;99.90
33837;DHT22;20140;49.356;8.812;2022-08-20T07:36:51;21.90;99.90
33837;DHT22;20140;49.356;8.812;2022-08-20T07:39:17;22.00;99.90
33837;DHT22;20140;49.356;8.812;2022-08-20T07:41:42;22.00;99.90
33837;DHT22;20140;49.356;8.812;2022-08-20T07:44:08;21.90;99.90
33837;DHT22;20140;49.356;8.812;2022-08-20T07:46:34;22.00;99.90
33837;DHT22;20140;49.356;8.812;2022-08-20T07:48:59;22.10;99.90
33837;DHT22;20140;49.356;8.812;2022-08-20T07:51:25;22.10;99.90
33837;DHT22;20140;49.356;8.812;2022-08-20T07:53:51;21.90;99.90
33837;DHT22;20140;49.356;8.812;2022-08-20T07:56:21;21.90;99.90
33837;DHT22;20140;49.356;8.812;2022-08-20T07:58:50;22.10;99.90
33837;DHT22;20140;49.356;8.812;2022-08-20T08:01:19;22.20;99.90
33837;DHT22;20140;49.356;8.812;2022-08-20T08:03:45;22.20;99.90
33837;DHT22;20140;49.356;8.812;2022-08-20T08:06:11;22.10;99.90
33837;DHT22;20140;49.356;8.812;2022-08-20T08:08:38;22.10;99.90
33837;DHT22;20140;49.356;8.812;2022-08-20T08:11:04;22.20;99.90
33837;DHT22;20140;49.356;8.812;2022-08-20T08:13:34;22.40;99.90
33837;DHT22;20140;49.356;8.812;2022-08-20T08:16:01;22.30;99.90
33837;DHT22;20140;49.356;8.812;2022-08-20T08:18:44;22.20;99.90
33837;DHT22;20140;49.356;8.812;2022-08-20T08:21:10;22.10;99.90
33837;DHT22;20140;49.356;8.812;2022-08-20T08:23:38;22.20;99.90
33837;DHT22;20140;49.356;8.812;2022-08-20T08:26:05;22.20;99.90
33837;DHT22;20140;49.356;8.812;2022-08-20T08:28:31;22.20;99.90
33837;DHT22;20140;49.356;8.812;2022-08-20T08:30:57;22.20;99.90
33837;DHT22;20140;49.356;8.812;2022-08-20T08:33:29;22.20;99.90
33837;DHT22;20140;49.356;8.812;2022-08-20T08:35:59;22.00;99.90
33837;DHT22;20140;49.356;8.812;2022-08-20T08:38:28;22.10;99.90
33837;DHT22;20140;49.356;8.812;2022-08-20T08:40:56;22.20;99.90
33837;DHT22;20140;49.356;8.812;2022-08-20T08:43:24;21.90;99.90
33837;DHT22;20140;49.356;8.812;2022-08-20T08:46:02;21.80;99.90
33837;DHT22;20140;49.356;8.812;2022-08-20T08:48:35;21.60;99.90
33837;DHT22;20140;49.356;8.812;2022-08-20T08:51:03;21.70;99.90
33837;DHT22;20140;49.356;8.812;2022-08-20T08:53:35;21.90;99.90
33837;DHT22;20140;49.356;8.812;2022-08-20T08:56:03;21.90;99.90
33837;DHT22;20140;49.356;8.812;2022-08-20T08:58:30;21.70;99.90
33837;DHT22;20140;49.356;8.812;2022-08-20T09:01:07;21.60;99.90
33837;DHT22;20140;49.356;8.812;2022-08-20T09:03:35;21.50;99.90
33837;DHT22;20140;49.356;8.812;2022-08-20T09:06:02;21.50;99.90
33837;DHT22;20140;49.356;8.812;2022-08-20T09:08:43;21.50;99.90
33837;DHT22;20140;49.356;8.812;2022-08-20T09:11:10;21.60;99.90
33837;DHT22;20140;49.356;8.812;2022-08-20T09:13:36;21.50;99.90
33837;DHT22;20140;49.356;8.812;2022-08-20T09:16:02;21.60;99.90
33837;DHT22;20140;49.356;8.812;2022-08-20T09:18:27;21.80;99.90
33837;DHT22;20140;49.356;8.812;2022-08-20T09:20:53;22.00;99.90
33837;DHT22;20140;49.356;8.812;2022-08-20T09:23:18;22.20;99.90
33837;DHT22;20140;49.356;8.812;2022-08-20T09:25:44;22.20;99.90
33837;DHT22;20140;49.356;8.812;2022-08-20T09:28:09;22.20;99.90
33837;DHT22;20140;49.356;8.812;2022-08-20T09:30:35;22.10;99.90
33837;DHT22;20140;49.356;8.812;2022-08-20T09:33:00;22.10;99.90
33837;DHT22;20140;49.356;8.812;2022-08-20T09:35:26;22.00;99.90
33837;DHT22;20140;49.356;8.812;2022-08-20T09:37:52;22.00;99.90
33837;DHT22;20140;49.356;8.812;2022-08-20T09:40:18;22.10;99.90
33837;DHT22;20140;49.356;8.812;2022-08-20T09:42:44;22.10;99.90
33837;DHT22;20140;49.356;8.812;2022-08-20T09:45:11;22.20;99.90
33837;DHT22;20140;49.356;8.812;2022-08-20T09:47:37;22.10;99.90
33837;DHT22;20140;49.356;8.812;2022-08-20T09:50:03;22.10;99.90
33837;DHT22;20140;49.356;8.812;2022-08-20T09:52:35;22.20;99.90
33837;DHT22;20140;49.356;8.812;2022-08-20T09:55:07;22.40;99.90
33837;DHT22;20140;49.356;8.812;2022-08-20T09:57:36;22.60;99.90
33837;DHT22;20140;49.356;8.812;2022-08-20T10:00:06;22.90;99.90
33837;DHT22;20140;49.356;8.812;2022-08-20T10:02:33;23.20;99.90
33837;DHT22;20140;49.356;8.812;2022-08-20T10:04:58;23.40;99.90
33837;DHT22;20140;49.356;8.812;2022-08-20T10:07:24;23.50;99.90
33837;DHT22;20140;49.356;8.812;2022-08-20T10:09:50;23.60;99.90
33837;DHT22;20140;49.356;8.812;2022-08-20T10:12:15;23.50;99.90
33837;DHT22;20140;49.356;8.812;2022-08-20T10:14:41;23.60;99.90
33837;DHT22;20140;49.356;8.812;2022-08-20T10:17:06;23.60;99.90
33837;DHT22;20140;49.356;8.812;2022-08-20T10:19:32;23.60;99.90
33837;DHT22;20140;49.356;8.812;2022-08-20T10:21:58;23.60;99.90
33837;DHT22;20140;49.356;8.812;2022-08-20T10:24:25;23.50;99.90
33837;DHT22;20140;49.356;8.812;2022-08-20T10:26:54;23.60;99.90
33837;DHT22;20140;49.356;8.812;2022-08-20T10:29:20;23.40;99.90
33837;DHT22;20140;49.356;8.812;2022-08-20T10:31:45;23.50;99.90
33837;DHT22;20140;49.356;8.812;2022-08-20T10:34:11;23.40;99.90
33837;DHT22;20140;49.356;8.812;2022-08-20T10:36:37;23.50;99.90
33837;DHT22;20140;49.356;8.812;2022-08-20T10:39:02;23.60;99.90
33837;DHT22;20140;49.356;8.812;2022-08-20T10:41:28;23.70;99.90
33837;DHT22;20140;49.356;8.812;2022-08-20T10:43:53;23.60;99.90
33837;DHT22;20140;49.356;8.812;2022-08-20T10:46:19;23.60;99.90
33837;DHT22;20140;49.356;8.812;2022-08-20T10:48:44;23.50;99.90
33837;DHT22;20140;49.356;8.812;2022-08-20T10:51:10;23.50;99.90
33837;DHT22;20140;49.356;8.812;2022-08-20T10:53:36;23.60;99.90
33837;DHT22;20140;49.356;8.812;2022-08-20T10:56:02;23.60;99.90
33837;DHT22;20140;49.356;8.812;2022-08-20T10:58:27;23.50;99.90
33837;DHT22;20140;49.356;8.812;2022-08-20T11:00:53;23.60;99.90
33837;DHT22;20140;49.356;8.812;2022-08-20T11:03:19;23.50;99.90
33837;DHT22;20140;49.356;8.812;2022-08-20T11:05:45;23.60;99.90
33837;DHT22;20140;49.356;8.812;2022-08-20T11:08:11;23.80;99.90
33837;DHT22;20140;49.356;8.812;2022-08-20T11:10:36;23.60;99.90
33837;DHT22;20140;49.356;8.812;2022-08-20T11:13:05;23.70;99.90
33837;DHT22;20140;49.356;8.812;2022-08-20T11:15:41;23.70;99.90
33837;DHT22;20140;49.356;8.812;2022-08-20T11:18:08;23.70;99.90
33837;DHT22;20140;49.356;8.812;2022-08-20T11:20:34;24.20;99.90
33837;DHT22;20140;49.356;8.812;2022-08-20T11:23:00;24.50;99.90
33837;DHT22;20140;49.356;8.812;2022-08-20T11:25:27;24.60;99.90
33837;DHT22;20140;49.356;8.812;2022-08-20T11:27:54;24.70;99.90
33837;DHT22;20140;49.356;8.812;2022-08-20T11:30:24;24.60;99.90
33837;DHT22;20140;49.356;8.812;2022-08-20T11:32:50;24.70;99.90
33837;DHT22;20140;49.356;8.812;2022-08-20T11:35:16;24.70;99.90
33837;DHT22;20140;49.356;8.812;2022-08-20T11:37:43;24.60;99.90
33837;DHT22;20140;49.356;8.812;2022-08-20T11:40:09;24.80;99.90
33837;DHT22;20140;49.356;8.812;2022-08-20T11:42:36;24.70;99.90
33837;DHT22;20140;49.356;8.812;2022-08-20T11:45:03;24.80;99.90
33837;DHT22;20140;49.356;8.812;2022-08-20T11:47:29;25.00;99.90
33837;DHT22;20140;49.356;8.812;2022-08-20T11:49:57;25.10;99.90
33837;DHT22;20140;49.356;8.812;2022-08-20T11:52:24;24.70;99.90
33837;DHT22;20140;49.356;8.812;2022-08-20T11:54:50;24.70;99.90
33837;DHT22;20140;49.356;8.812;2022-08-20T11:57:20;24.70;99.90
33837;DHT22;20140;49.356;8.812;2022-08-20T11:59:51;24.50;99.90
33837;DHT22;20140;49.356;8.812;2022-08-20T12:02:17;24.50;99.90
33837;DHT22;20140;49.356;8.812;2022-08-20T12:04:43;24.60;99.90
33837;DHT22;20140;49.356;8.812;2022-08-20T12:07:11;24.40;99.90
33837;DHT22;20140;49.356;8.812;2022-08-20T12:09:37;24.30;99.90
33837;DHT22;20140;49.356;8.812;2022-08-20T12:12:03;24.60;99.90
33837;DHT22;20140;49.356;8.812;2022-08-20T12:14:28;24.80;99.90
33837;DHT22;20140;49.356;8.812;2022-08-20T12:16:54;25.00;99.90
33837;DHT22;20140;49.356;8.812;2022-08-20T12:19:19;25.20;99.90
33837;DHT22;20140;49.356;8.812;2022-08-20T12:21:45;25.50;99.90
33837;DHT22;20140;49.356;8.812;2022-08-20T12:24:10;25.90;99.90
33837;DHT22;20140;49.356;8.812;2022-08-20T12:26:36;26.00;99.90
33837;DHT22;20140;49.356;8.812;2022-08-20T12:29:01;25.80;99.90
33837;DHT22;20140;49.356;8.812;2022-08-20T12:31:27;25.90;99.90
33837;DHT22;20140;49.356;8.812;2022-08-20T12:33:52;25.90;99.90
33837;DHT22;20140;49.356;8.812;2022-08-20T12:36:18;26.10;99.90
33837;DHT22;20140;49.356;8.812;2022-08-20T12:38:43;26.00;99.90
33837;DHT22;20140;49.356;8.812;2022-08-20T12:41:09;25.90;99.90
33837;DHT22;20140;49.356;8.812;2022-08-20T12:43:34;26.00;99.90
33837;DHT22;20140;49.356;8.812;2022-08-20T12:46:00;26.10;99.90
33837;DHT22;20140;49.356;8.812;2022-08-20T12:48:25;26.20;99.90
33837;DHT22;20140;49.356;8.812;2022-08-20T12:50:51;26.20;99.90
33837;DHT22;20140;49.356;8.812;2022-08-20T12:53:17;26.10;99.90
33837;DHT22;20140;49.356;8.812;2022-08-20T12:55:43;26.30;99.90
33837;DHT22;20140;49.356;8.812;2022-08-20T12:58:09;26.40;99.90
33837;DHT22;20140;49.356;8.812;2022-08-20T13:00:38;26.70;99.90
33837;DHT22;20140;49.356;8.812;2022-08-20T13:03:06;27.50;99.90
33837;DHT22;20140;49.356;8.812;2022-08-20T13:05:33;27.80;99.90
33837;DHT22;20140;49.356;8.812;2022-08-20T13:07:59;27.90;99.90
33837;DHT22;20140;49.356;8.812;2022-08-20T13:10:28;28.10;99.90
33837;DHT22;20140;49.356;8.812;2022-08-20T13:12:54;27.50;99.90
33837;DHT22;20140;49.356;8.812;2022-08-20T13:15:20;27.40;99.90
33837;DHT22;20140;49.356;8.812;2022-08-20T13:17:54;27.60;99.80
33837;DHT22;20140;49.356;8.812;2022-08-20T13:20:20;28.20;99.60
33837;DHT22;20140;49.356;8.812;2022-08-20T13:22:46;28.80;98.90
33837;DHT22;20140;49.356;8.812;2022-08-20T13:25:12;29.70;96.90
33837;DHT22;20140;49.356;8.812;2022-08-20T13:27:40;30.20;95.40
33837;DHT22;20140;49.356;8.812;2022-08-20T13:30:08;29.90;94.50
33837;DHT22;20140;49.356;8.812;2022-08-20T13:32:34;28.90;95.20
33837;DHT22;20140;49.356;8.812;2022-08-20T13:35:00;29.50;95.50
33837;DHT22;20140;49.356;8.812;2022-08-20T13:37:28;30.10;94.40
33837;DHT22;20140;49.356;8.812;2022-08-20T13:39:54;31.20;92.40
33837;DHT22;20140;49.356;8.812;2022-08-20T13:42:20;32.20;90.90
33837;DHT22;20140;49.356;8.812;2022-08-20T13:44:46;32.50;88.10
33837;DHT22;20140;49.356;8.812;2022-08-20T13:47:20;32.50;85.30
33837;DHT22;20140;49.356;8.812;2022-08-20T13:49:47;31.70;86.40
33837;DHT22;20140;49.356;8.812;2022-08-20T13:52:13;31.90;81.50
33837;DHT22;20140;49.356;8.812;2022-08-20T13:54:39;31.40;83.30
33837;DHT22;20140;49.356;8.812;2022-08-20T13:57:13;32.20;80.30
33837;DHT22;20140;49.356;8.812;2022-08-20T13:59:41;33.00;77.20
33837;DHT22;20140;49.356;8.812;2022-08-20T14:02:08;33.10;73.70
33837;DHT22;20140;49.356;8.812;2022-08-20T14:04:34;32.60;72.90
33837;DHT22;20140;49.356;8.812;2022-08-20T14:07:31;32.10;73.90
33837;DHT22;20140;49.356;8.812;2022-08-20T14:10:03;31.80;74.80
33837;DHT22;20140;49.356;8.812;2022-08-20T14:12:29;30.20;72.10
33837;DHT22;20140;49.356;8.812;2022-08-20T14:14:55;29.20;71.50
33837;DHT22;20140;49.356;8.812;2022-08-20T14:17:24;29.30;67.10
33837;DHT22;20140;49.356;8.812;2022-08-20T14:19:51;30.10;66.00
33837;DHT22;20140;49.356;8.812;2022-08-20T14:22:17;30.90;63.10
33837;DHT22;20140;49.356;8.812;2022-08-20T14:24:47;31.10;65.20
33837;DHT22;20140;49.356;8.812;2022-08-20T14:27:15;30.10;68.40
33837;DHT22;20140;49.356;8.812;2022-08-20T14:29:43;29.40;69.60
33837;DHT22;20140;49.356;8.812;2022-08-20T14:32:09;29.80;68.50
33837;DHT22;20140;49.356;8.812;2022-08-20T14:34:34;30.30;68.70
33837;DHT22;20140;49.356;8.812;2022-08-20T14:37:12;30.90;66.00
33837;DHT22;20140;49.356;8.812;2022-08-20T14:39:38;31.20;65.40
33837;DHT22;20140;49.356;8.812;2022-08-20T14:42:04;31.60;65.10
33837;DHT22;20140;49.356;8.812;2022-08-20T14:44:30;32.10;62.40
33837;DHT22;20140;49.356;8.812;2022-08-20T14:46:55;31.20;63.50
33837;DHT22;20140;49.356;8.812;2022-08-20T14:49:21;31.20;63.40
33837;DHT22;20140;49.356;8.812;2022-08-20T14:51:47;30.80;63.00
33837;DHT22;20140;49.356;8.812;2022-08-20T14:54:12;30.40;63.00
33837;DHT22;20140;49.356;8.812;2022-08-20T14:56:38;30.00;64.10
33837;DHT22;20140;49.356;8.812;2022-08-20T14:59:03;29.70;65.50
33837;DHT22;20140;49.356;8.812;2022-08-20T15:01:29;29.40;66.40
33837;DHT22;20140;49.356;8.812;2022-08-20T15:03:54;28.90;67.00
33837;DHT22;20140;49.356;8.812;2022-08-20T15:06:20;29.20;67.50
33837;DHT22;20140;49.356;8.812;2022-08-20T15:08:46;29.70;66.60
33837;DHT22;20140;49.356;8.812;2022-08-20T15:11:12;30.60;64.60
33837;DHT22;20140;49.356;8.812;2022-08-20T15:13:37;32.10;61.60
33837;DHT22;20140;49.356;8.812;2022-08-20T15:16:03;32.80;60.70
33837;DHT22;20140;49.356;8.812;2022-08-20T15:18:29;33.00;59.80
33837;DHT22;20140;49.356;8.812;2022-08-20T15:20:55;32.90;58.30
33837;DHT22;20140;49.356;8.812;2022-08-20T15:23:20;32.40;57.70
33837;DHT22;20140;49.356;8.812;2022-08-20T15:25:46;31.90;59.40
33837;DHT22;20140;49.356;8.812;2022-08-20T15:28:11;32.00;57.60
33837;DHT22;20140;49.356;8.812;2022-08-20T15:30:39;31.20;58.20
33837;DHT22;20140;49.356;8.812;2022-08-20T15:33:05;29.70;61.60
33837;DHT22;20140;49.356;8.812;2022-08-20T15:35:31;30.40;60.40
33837;DHT22;20140;49.356;8.812;2022-08-20T15:37:57;31.60;57.30
33837;DHT22;20140;49.356;8.812;2022-08-20T15:40:25;31.70;55.60
33837;DHT22;20140;49.356;8.812;2022-08-20T15:42:51;31.90;55.50
33837;DHT22;20140;49.356;8.812;2022-08-20T15:45:17;33.10;53.10
33837;DHT22;20140;49.356;8.812;2022-08-20T15:50:12;33.60;51.80
33837;DHT22;20140;49.356;8.812;2022-08-20T15:52:41;33.70;51.50
33837;DHT22;20140;49.356;8.812;2022-08-20T15:55:10;33.90;49.80
33837;DHT22;20140;49.356;8.812;2022-08-20T16:00:19;32.60;50.20
33837;DHT22;20140;49.356;8.812;2022-08-20T16:11:38;30.70;46.40
33837;DHT22;20140;49.356;8.812;2022-08-20T16:16:47;32.00;44.80
33837;DHT22;20140;49.356;8.812;2022-08-20T16:19:31;32.70;42.80
33837;DHT22;20140;49.356;8.812;2022-08-20T16:21:59;33.30;42.40
33837;DHT22;20140;49.356;8.812;2022-08-20T16:24:27;33.70;40.90
33837;DHT22;20140;49.356;8.812;2022-08-20T16:30:16;33.70;39.70
33837;DHT22;20140;49.356;8.812;2022-08-20T16:32:46;33.10;41.10
33837;DHT22;20140;49.356;8.812;2022-08-20T16:35:34;32.90;40.80
33837;DHT22;20140;49.356;8.812;2022-08-20T16:38:16;32.70;41.70